KCSG

Columbus Airport

Columbus, Georgia, USA
KCSG 260529Z 2606/2706 VRB03KT P6SM SCT250 FM261200 19005KT P6SM BKN120 FM261500 19007KT P6SM VCSH BKN045 FM261800 20006KT 6SM -SHRA BKN025 PROB30 2618/2622 4SM -TSRA BKN025CB FM270000 28005KT P6SM VCSH SCT040
Issued Valid From Valid To
Apr-26 @ 05:29 UTC
(33 minutes ago)
Apr-26 @ 06:00 UTC
(2 minutes ago)
Apr-27 @ 06:00 UTC
(in 24 hours)
Apr-26 @ 06:00 to Apr-26 @ 12:00
KCSG 260529Z 2606/2706 VRB03KT P6SM SCT250
Wind Visibility Clouds
Variable at 3 knots Greater than 6 miles
  • Scattered at 25,000' AGL
From Apr-26 @ 12:00 to Apr-26 @ 15:00
FM261200 19005KT P6SM BKN120
Wind Visibility Clouds
190° at 5 knots Greater than 6 miles
  • Broken at 12,000' AGL
From Apr-26 @ 15:00 to Apr-26 @ 18:00
FM261500 19007KT P6SM VCSH BKN045
Wind Visibility Clouds
190° at 7 knots Greater than 6 miles
  • Broken at 4,500' AGL
Probable  (Probability 30%) Apr-26 @ 18:00 to Apr-26 @ 22:00
PROB30 2618/2622 4SM -TSRA BKN025CB
Visibility Clouds Conditions
4 miles
  • Broken at 2,500' AGL
  • Light Thunderstorm
  • Light Rain
From Apr-26 @ 18:00 to Apr-27 @ 00:00
FM261800 20006KT 6SM -SHRA BKN025
Wind Visibility Clouds Conditions
200° at 6 knots 6 miles
  • Broken at 2,500' AGL
  • Light Rain
From Apr-27 @ 00:00 to Apr-27 @ 06:00
FM270000 28005KT P6SM VCSH SCT040
Wind Visibility Clouds
280° at 5 knots Greater than 6 miles
  • Scattered at 4,000' AGL
KCSG 260529Z 2606/2706 VRB03KT P6SM SCT250 FM261200 19005KT P6SM BKN120 FM261500 19007KT P6SM VCSH BKN045 FM261800 20006KT 6SM -SHRA BKN025 PROB30 2618/2622 4SM -TSRA BKN025CB FM270000 28005KT P6SM VCSH SCT040
Issued Apr-26 @ 05:29 UTC
(33 minutes ago)
Valid From Apr-26 @ 06:00 UTC
(2 minutes ago)
Valid To Apr-27 @ 06:00 UTC
(in 24 hours)
Apr-26 @ 06:00 - Apr-26 @ 12:00
Wind Visibility
Variable at 3 knots Greater than 6 miles
Clouds
  • Scattered at 25,000' AGL
From Apr-26 @ 12:00 - Apr-26 @ 15:00
Wind Visibility
190° at 5 knots Greater than 6 miles
Clouds
  • Broken at 12,000' AGL
From Apr-26 @ 15:00 - Apr-26 @ 18:00
Wind Visibility
190° at 7 knots Greater than 6 miles
Clouds
  • Broken at 4,500' AGL
Probability 30% Probable Apr-26 @ 18:00 - Apr-26 @ 22:00
Clouds
  • Broken at 2,500' AGL
Conditions
  • Light Thunderstorm
  • Light Rain
From Apr-26 @ 18:00 - Apr-27 @ 00:00
Wind Visibility
200° at 6 knots 6 miles
Clouds
  • Broken at 2,500' AGL
Conditions
  • Light Rain
From Apr-27 @ 00:00 - Apr-27 @ 06:00
Wind Visibility
280° at 5 knots Greater than 6 miles
Clouds
  • Scattered at 4,000' AGL